»·PEaware :: N1016S L88-KSBP

N1016S :: L88-KSBP

FLIGHT INFORMATION

Flight Status: Arrived
Operator: Privately registered:
United States
More flights under this callsign
Pilot: Philip R. (31433)
Aircraft: CESSNA 172 SKYHAWK
(C172)
More flights by this aircraft type
Origin: L88 New Cuyama
United States
Destination: KSBP San Luis Co Regl
United States
More flights between these airports :: More routes between these airports
Route: FLW MQO
File this flight plan on PilotEdge
Remarks:
Altitude:
(Current/Filed)
6,000ft
Speed:
(Current/Filed)
90kts
Departed: 11-Jan-21 05:52 PM
Arrived: 11-Jan-21 06:37 PM
Distance/Time
Traveled:
50nm/0:45
Distance/Time
To Go:
Arrived

Flight Plot

Page will automatically refresh every two minutes.

Flight plan parsing failed; only flown route is shown


Map Options




Map Legend


Flown Route
Filed Route
Departure Airport
Arrival Airport
Navaid (VOR, NDB)
Fix

Horizontal Profiles

Position Reports

Time Latitude Longitude Heading Altitude Ground
Speed
11-Jan-21 17:16 34.943161 -119.690983 24 2151ft 0kts
11-Jan-21 17:17 34.943161 -119.690983 24 2151ft 0kts
11-Jan-21 17:18 34.943161 -119.690983 24 2151ft 0kts
11-Jan-21 17:19 34.943161 -119.690983 24 2151ft 0kts
11-Jan-21 17:20 34.943161 -119.690983 24 2151ft 0kts
11-Jan-21 17:21 34.943161 -119.690983 24 2151ft 0kts
11-Jan-21 17:22 34.943161 -119.690983 24 2151ft 0kts
11-Jan-21 17:23 34.943161 -119.690983 24 2151ft 0kts
11-Jan-21 17:24 34.943161 -119.690983 24 2151ft 0kts
11-Jan-21 17:25 34.943162 -119.690983 24 2151ft 0kts
11-Jan-21 17:26 34.943162 -119.690983 24 2151ft 0kts
11-Jan-21 17:27 34.943162 -119.690983 24 2151ft 0kts
11-Jan-21 17:28 34.943162 -119.690983 24 2151ft 0kts
11-Jan-21 17:29 34.943162 -119.690983 24 2151ft 0kts
11-Jan-21 17:30 34.943162 -119.690983 24 2151ft 0kts
11-Jan-21 17:31 34.943162 -119.690983 24 2151ft 0kts
11-Jan-21 17:32 34.943162 -119.690983 24 2151ft 0kts
11-Jan-21 17:33 34.943162 -119.690983 24 2151ft 0kts
11-Jan-21 17:34 34.943162 -119.690983 24 2151ft 0kts
11-Jan-21 17:35 34.943162 -119.690983 24 2151ft 0kts
11-Jan-21 17:36 34.943162 -119.690983 24 2151ft 0kts
11-Jan-21 17:37 34.943162 -119.690983 24 2151ft 0kts
11-Jan-21 17:38 34.943162 -119.690983 24 2151ft 0kts
11-Jan-21 17:39 34.943162 -119.690983 24 2151ft 0kts
11-Jan-21 17:40 34.943166 -119.690981 28 2151ft 0kts
11-Jan-21 17:41 34.943386 -119.690874 347 2151ft 4kts
11-Jan-21 17:42 34.942973 -119.691149 196 2150ft 0kts
11-Jan-21 17:43 34.942973 -119.691149 196 2150ft 0kts
11-Jan-21 17:44 34.942973 -119.691149 196 2150ft 0kts
11-Jan-21 17:45 34.942973 -119.691149 196 2150ft 0kts
11-Jan-21 17:46 34.942973 -119.691149 196 2150ft 0kts
11-Jan-21 17:47 34.942870 -119.691179 198 2150ft 4kts
11-Jan-21 17:48 34.942750 -119.691232 204 2150ft 0kts
11-Jan-21 17:49 34.942750 -119.691232 204 2150ft 0kts
11-Jan-21 17:50 34.941495 -119.689370 118 2161ft 39kts
11-Jan-21 17:51 34.932679 -119.669462 126 2555ft 66kts
11-Jan-21 17:52 34.919149 -119.656761 224 3007ft 68kts
11-Jan-21 17:53 34.916946 -119.675568 316 3407ft 69kts
11-Jan-21 17:54 34.930711 -119.691597 327 3834ft 67kts
11-Jan-21 17:55 34.945204 -119.704694 313 4198ft 64kts
11-Jan-21 17:56 34.958173 -119.720919 314 4533ft 68kts
11-Jan-21 17:57 34.971220 -119.737289 317 4896ft 66kts
11-Jan-21 17:58 34.984292 -119.752989 320 5238ft 67kts
11-Jan-21 17:59 34.999813 -119.765645 347 5604ft 65kts
11-Jan-21 18:00 35.016981 -119.774547 310 5931ft 68kts
11-Jan-21 18:01 35.028839 -119.793737 307 6059ft 73kts
11-Jan-21 18:03 35.041742 -119.814827 317 6185ft 77kts
11-Jan-21 18:04 35.060448 -119.827999 312 6319ft 78kts
11-Jan-21 18:05 35.075921 -119.846835 317 6437ft 78kts
11-Jan-21 18:06 35.092547 -119.864428 316 6503ft 81kts
11-Jan-21 18:07 35.094589 -119.889775 273 6656ft 76kts
11-Jan-21 18:08 35.097646 -119.915712 285 6748ft 80kts
11-Jan-21 18:09 35.102213 -119.942532 281 6503ft 80kts
11-Jan-21 18:10 35.108036 -119.968492 295 6275ft 76kts
11-Jan-21 18:11 35.112047 -119.993909 272 6013ft 77kts
11-Jan-21 18:12 35.111960 -120.019536 271 5884ft 74kts
11-Jan-21 18:13 35.116929 -120.044443 308 5955ft 78kts
11-Jan-21 18:14 35.129965 -120.065990 302 6048ft 78kts
11-Jan-21 18:15 35.137363 -120.090663 276 6120ft 79kts
11-Jan-21 18:16 35.139276 -120.116787 287 6224ft 76kts
11-Jan-21 18:16 35.142049 -120.137713 270 6103ft 73kts
11-Jan-21 18:18 35.145991 -120.168177 273 5788ft 76kts
11-Jan-21 18:19 35.148067 -120.193262 285 5721ft 73kts
11-Jan-21 18:19 35.152691 -120.213684 283 5728ft 76kts
11-Jan-21 18:20 35.157668 -120.239392 281 5744ft 77kts
11-Jan-21 18:21 35.161345 -120.264529 270 5777ft 74kts
11-Jan-21 18:23 35.158094 -120.293722 255 5794ft 75kts
11-Jan-21 18:23 35.157913 -120.313747 313 5607ft 80kts
11-Jan-21 18:24 35.176557 -120.327466 306 5423ft 72kts
11-Jan-21 18:25 35.179331 -120.352131 271 5212ft 76kts
11-Jan-21 18:26 35.182945 -120.377528 282 4988ft 77kts
11-Jan-21 18:27 35.190005 -120.401375 313 4804ft 74kts
11-Jan-21 18:28 35.189471 -120.426961 272 4529ft 83kts
11-Jan-21 18:29 35.184041 -120.454067 244 4122ft 84kts
11-Jan-21 18:30 35.184733 -120.482985 296 3538ft 91kts
11-Jan-21 18:31 35.195615 -120.510290 290 3092ft 82kts
11-Jan-21 18:32 35.199572 -120.538323 271 2648ft 82kts
11-Jan-21 18:33 35.197863 -120.566673 271 2232ft 80kts
11-Jan-21 18:34 35.208818 -120.593211 307 1585ft 96kts
11-Jan-21 18:35 35.224721 -120.618856 317 859ft 100kts
11-Jan-21 18:36 35.237808 -120.641919 306 191ft 21kts
11-Jan-21 18:37 35.240038 -120.644084 14 181ft 0kts
11-Jan-21 18:38 35.240038 -120.644084 14 181ft 0kts
11-Jan-21 18:39 35.239284 -120.642646 132 186ft 21kts
11-Jan-21 18:40 35.236261 -120.636402 47 204ft 0kts
11-Jan-21 18:41 35.236269 -120.636393 36 204ft 0kts
11-Jan-21 18:42 35.236269 -120.636393 36 204ft 0kts
11-Jan-21 18:43 35.236269 -120.636393 36 204ft 0kts
11-Jan-21 18:44 35.236269 -120.636393 36 204ft 0kts
11-Jan-21 18:45 35.236269 -120.636393 36 204ft 0kts
11-Jan-21 18:46 35.236269 -120.636393 36 204ft 0kts
11-Jan-21 18:47 35.236269 -120.636393 36 204ft 0kts

Navigation Log

Ident Type
Flight plan parsing failed, navigation log unavailable